Time;durP1;ratioP1;P1;durP2;ratioP2;P2;SDS_P1;SDS_P2;PMS_P1;PMS_P2;Temp;Humidity;BMP_temperature;BMP_pressure;BME280_temperature;BME280_humidity;BME280_pressure;Samples;Min_cycle;Max_cycle;Signal;HPM_P1;HPM_P2
2022/11/30 00:00:54;;;;;;;18.42;8.80;;;;;;;4.13;100.00;101584.06;6037664;23;20041;-82
2022/11/30 00:03:22;;;;;;;21.27;10.23;;;;;;;2.70;100.00;101333.84;6037297;23;20041;-82
2022/11/30 00:05:49;;;;;;;8.30;7.63;;;;;;;3.67;100.00;101490.22;6038101;23;20045;-79
2022/11/30 00:08:16;;;;;;;17.23;9.60;;;;;;;2.57;100.00;101347.81;6032567;23;20084;-82
2022/11/30 00:10:43;;;;;;;19.98;9.60;;;;;;;4.19;100.00;101557.16;6055861;23;20036;-82
2022/11/30 00:13:10;;;;;;;10.02;8.20;;;;;;;3.92;100.00;101581.69;6063264;23;20043;-83
2022/11/30 00:15:37;;;;;;;9.57;8.48;;;;;;;5.12;100.00;101749.28;6061786;23;20026;-83
2022/11/30 00:18:04;;;;;;;16.83;10.70;;;;;;;5.76;100.00;101833.50;6060815;23;20099;-78
2022/11/30 00:20:30;;;;;;;15.27;9.63;;;;;;;4.12;100.00;101618.72;6054488;23;20234;-80
2022/11/30 00:22:56;;;;;;;18.73;9.70;;;;;;;3.52;100.00;101476.53;6037725;23;20034;-82
2022/11/30 00:25:26;;;;;;;11.85;9.60;;;;;;;3.43;100.00;101465.38;6062405;23;20776;-81
2022/11/30 00:27:52;;;;;;;11.95;9.57;;;;;;;5.34;100.00;101783.72;6038003;23;20022;-83
2022/11/30 00:30:19;;;;;;;20.60;10.30;;;;;;;3.93;100.00;101521.97;6048860;23;20046;-82
2022/11/30 00:32:45;;;;;;;11.00;9.68;;;;;;;2.82;100.00;101386.44;6037999;23;20042;-86
2022/11/30 00:35:12;;;;;;;19.33;12.75;;;;;;;4.28;100.00;101575.22;6039958;23;20088;-83
2022/11/30 00:37:38;;;;;;;21.35;11.23;;;;;;;4.79;100.00;101705.47;6042094;23;20121;-81
2022/11/30 00:40:06;;;;;;;13.23;11.65;;;;;;;5.24;100.00;101785.56;6066622;23;20039;-83
2022/11/30 00:42:32;;;;;;;27.67;10.68;;;;;;;2.68;100.00;101322.63;6049090;23;20297;-85
2022/11/30 00:44:59;;;;;;;15.52;9.25;;;;;;;3.74;100.00;101497.06;6080437;23;20026;-79
2022/11/30 00:47:25;;;;;;;38.50;10.27;;;;;;;3.73;100.00;101522.19;6031604;23;20063;-84
2022/11/30 00:49:51;;;;;;;21.65;12.27;;;;;;;4.83;100.00;101705.41;6038783;23;20030;-84
2022/11/30 00:52:18;;;;;;;16.58;9.85;;;;;;;3.91;100.00;101566.97;6076204;23;20030;-83
2022/11/30 00:54:44;;;;;;;15.52;10.75;;;;;;;3.77;100.00;101536.00;6034141;23;20022;-81
2022/11/30 00:57:11;;;;;;;22.35;11.95;;;;;;;3.38;100.00;101528.56;6037631;23;20026;-82
2022/11/30 00:59:38;;;;;;;13.98;7.68;;;;;;;3.57;100.00;101525.81;6065423;23;20456;-82
2022/11/30 01:02:04;;;;;;;13.18;9.93;;;;;;;3.54;100.00;101523.22;6039242;23;20512;-82
2022/11/30 01:04:31;;;;;;;7.85;7.13;;;;;;;3.70;100.00;101513.56;6065856;23;20018;-83
2022/11/30 01:06:57;;;;;;;21.05;9.57;;;;;;;4.11;100.00;101596.22;6067668;23;20039;-84
2022/11/30 01:09:26;;;;;;;9.90;8.93;;;;;;;3.26;100.00;101416.28;6064490;23;20070;-81
2022/11/30 01:11:55;;;;;;;16.40;10.00;;;;;;;4.15;100.00;101581.44;6038489;23;20063;-82
2022/11/30 01:14:22;;;;;;;23.85;10.25;;;;;;;3.11;100.00;101415.56;6022172;23;20023;-83
2022/11/30 01:17:00;;;;;;;15.25;9.52;;;;;;;5.90;100.00;101935.75;6056961;23;20046;-82
2022/11/30 01:19:27;;;;;;;25.00;9.57;;;;;;;3.45;100.00;101505.16;6060010;23;20042;-83
2022/11/30 01:22:21;;;;;;;11.82;9.45;;;;;;;2.33;100.00;101300.50;6064299;23;20014;-81
2022/11/30 01:24:57;;;;;;;18.02;12.00;;;;;;;3.15;100.00;101396.50;6025836;23;20709;-83
2022/11/30 01:27:29;;;;;;;13.23;8.32;;;;;;;2.59;100.00;101379.75;6030354;23;20084;-82
2022/11/30 01:30:07;;;;;;;29.02;11.25;;;;;;;4.03;100.00;101540.91;6040114;23;20545;-81
2022/11/30 01:32:51;;;;;;;16.33;6.30;;;;;;;3.40;100.00;101464.53;6057141;23;20042;-84
2022/11/30 01:35:18;;;;;;;9.73;8.75;;;;;;;3.72;100.00;101556.78;6025987;23;20014;-83
2022/11/30 01:38:06;;;;;;;16.30;9.70;;;;;;;2.03;100.00;101241.22;6055204;23;20046;-80
2022/11/30 01:40:35;;;;;;;27.17;10.82;;;;;;;4.00;100.00;101533.13;6059560;23;20124;-80
2022/11/30 01:43:02;;;;;;;15.13;8.80;;;;;;;3.22;100.00;101410.25;6036476;23;20523;-83
2022/11/30 01:47:56;;;;;;;23.50;9.48;;;;;;;5.97;100.00;101866.22;6027189;23;20025;-73
2022/11/30 01:50:31;;;;;;;10.82;9.82;;;;;;;5.71;100.00;101811.84;5982827;23;20027;-74
2022/11/30 01:52:58;;;;;;;16.77;10.07;;;;;;;6.05;100.00;101864.34;5971884;23;20023;-73
2022/11/30 01:55:36;;;;;;;16.65;10.32;;;;;;;6.06;100.00;101867.84;5997098;23;20435;-73
2022/11/30 01:58:10;;;;;;;12.50;9.07;;;;;;;5.69;100.00;101804.06;5956409;23;20030;-71
2022/11/30 02:00:38;;;;;;;6.82;6.10;;;;;;;6.02;100.00;101856.59;6000086;23;20173;-72
2022/11/30 02:03:13;;;;;;;17.58;10.50;;;;;;;6.07;100.00;101877.38;5973685;23;20023;-72
2022/11/30 02:05:40;;;;;;;12.23;9.80;;;;;;;6.07;100.00;101869.56;5997610;23;20188;-72
2022/11/30 02:08:09;;;;;;;9.40;8.35;;;;;;;6.09;100.00;101860.81;5973500;23;20371;-72
2022/11/30 02:10:40;;;;;;;15.35;9.13;;;;;;;6.00;100.00;101866.19;5976690;23;20035;-71
2022/11/30 02:13:32;;;;;;;12.73;9.77;;;;;;;6.06;100.00;101860.88;5972124;23;20465;-72
2022/11/30 02:16:17;;;;;;;8.88;6.82;;;;;;;6.07;100.00;101869.56;5988921;23;20031;-72
2022/11/30 02:19:02;;;;;;;14.90;9.07;;;;;;;5.99;100.00;101860.13;5966924;23;20028;-71
2022/11/30 02:22:00;;;;;;;10.70;7.97;;;;;;;6.00;100.00;101858.38;5968261;23;20050;-72
2022/11/30 02:24:54;;;;;;;11.98;7.95;;;;;;;6.08;100.00;101863.47;5971507;23;20075;-70
2022/11/30 02:27:32;;;;;;;17.40;7.72;;;;;;;6.05;100.00;101856.53;5992891;23;20024;-72
2022/11/30 02:30:04;;;;;;;20.48;10.35;;;;;;;6.05;100.00;101855.69;5971575;23;20008;-73
2022/11/30 02:32:38;;;;;;;14.75;9.63;;;;;;;5.55;100.00;101795.56;6000939;23;20015;-70
2022/11/30 02:35:07;;;;;;;10.10;9.05;;;;;;;5.96;100.00;101849.72;5970982;23;20007;-74
2022/11/30 02:37:36;;;;;;;10.77;6.97;;;;;;;6.02;100.00;101853.13;5972175;23;20621;-73
2022/11/30 02:40:08;;;;;;;8.75;7.45;;;;;;;6.05;100.00;101860.91;5980159;23;20038;-72
2022/11/30 02:42:35;;;;;;;12.75;8.23;;;;;;;6.03;100.00;101855.69;5997911;23;20035;-74
2022/11/30 02:45:01;;;;;;;12.15;8.07;;;;;;;5.88;100.00;101828.09;5972438;24;20035;-73
2022/11/30 02:47:59;;;;;;;24.17;21.85;;;;;;;6.08;100.00;101842.63;5963342;23;20747;-71
2022/11/30 02:50:35;;;;;;;14.40;9.20;;;;;;;6.16;100.00;101851.19;5957013;23;20094;-70
2022/11/30 02:53:02;;;;;;;19.15;7.22;;;;;;;6.13;100.00;101841.69;6011759;23;20112;-71
2022/11/30 02:55:30;;;;;;;9.55;7.03;;;;;;;6.09;100.00;101845.19;5999085;23;20011;-70
2022/11/30 02:57:57;;;;;;;12.65;8.18;;;;;;;6.16;100.00;101848.56;6031588;23;20022;-69
2022/11/30 03:00:23;;;;;;;8.68;7.60;;;;;;;6.08;100.00;101846.09;6000243;23;20412;-75
2022/11/30 03:02:50;;;;;;;16.75;9.70;;;;;;;6.18;100.00;101845.06;6031276;23;20043;-73
2022/11/30 03:05:16;;;;;;;18.67;8.30;;;;;;;6.20;100.00;101839.81;6009125;23;20313;-70
2022/11/30 03:07:42;;;;;;;11.95;6.57;;;;;;;6.06;100.00;101834.81;6027184;23;20081;-70
2022/11/30 03:10:09;;;;;;;21.48;9.52;;;;;;;6.06;100.00;101833.97;6003559;23;20030;-70
2022/11/30 03:12:36;;;;;;;15.32;9.00;;;;;;;6.11;100.00;101832.13;6026309;23;20022;-73
2022/11/30 03:15:03;;;;;;;11.98;7.53;;;;;;;6.11;100.00;101846.03;6000016;23;20141;-72
2022/11/30 03:17:30;;;;;;;9.85;8.40;;;;;;;6.10;100.00;101839.09;6020768;23;20042;-74
2022/11/30 03:19:56;;;;;;;23.08;9.98;;;;;;;5.94;100.00;101817.59;6006915;23;20050;-74
2022/11/30 03:22:23;;;;;;;9.88;8.02;;;;;;;6.13;100.00;101846.00;6033686;23;20014;-73
2022/11/30 03:24:50;;;;;;;16.70;10.75;;;;;;;6.16;100.00;101836.41;6006417;23;20008;-76
2022/11/30 03:27:16;;;;;;;11.10;9.82;;;;;;;5.73;100.00;101784.91;6033893;23;20030;-75
2022/11/30 03:29:43;;;;;;;11.18;8.27;;;;;;;5.93;100.00;101808.06;6004426;23;20018;-73
2022/11/30 03:32:09;;;;;;;15.82;9.77;;;;;;;5.70;100.00;101778.88;6033543;23;20383;-76
2022/11/30 03:34:35;;;;;;;9.55;8.60;;;;;;;6.21;100.00;101851.97;5994746;23;20128;-73
2022/11/30 03:37:02;;;;;;;8.50;7.72;;;;;;;5.73;100.00;101791.84;6010183;23;20050;-73
2022/11/30 03:39:28;;;;;;;14.65;9.45;;;;;;;6.23;100.00;101859.75;5999605;23;20026;-74
2022/11/30 03:41:55;;;;;;;8.32;7.35;;;;;;;6.29;100.00;101862.28;6012769;23;20015;-73
2022/11/30 03:44:21;;;;;;;11.68;8.65;;;;;;;6.30;100.00;101862.25;5994207;23;20015;-76
2022/11/30 03:46:48;;;;;;;9.23;8.20;;;;;;;6.38;100.00;101869.97;6015352;23;20122;-72
2022/11/30 03:49:14;;;;;;;15.88;10.55;;;;;;;6.32;100.00;101862.25;6014081;23;20019;-73
2022/11/30 03:51:41;;;;;;;9.07;8.20;;;;;;;6.25;100.00;101866.66;6006965;23;20199;-72
2022/11/30 03:54:07;;;;;;;11.43;9.57;;;;;;;6.38;100.00;101870.81;6010051;23;20184;-74
2022/11/30 03:56:34;;;;;;;9.18;8.13;;;;;;;6.39;100.00;101864.72;6026356;23;20025;-74
2022/11/30 03:59:00;;;;;;;13.13;7.18;;;;;;;6.21;100.00;101836.31;5982916;23;20008;-75
2022/11/30 04:01:26;;;;;;;10.95;8.88;;;;;;;6.30;100.00;101849.22;6027992;23;20036;-74
2022/11/30 04:03:53;;;;;;;8.55;7.80;;;;;;;6.39;100.00;101864.72;5972531;23;20028;-73
2022/11/30 04:06:20;;;;;;;10.65;7.85;;;;;;;6.41;100.00;101867.28;6042103;23;20026;-75
2022/11/30 04:08:47;;;;;;;14.77;8.98;;;;;;;6.42;100.00;101863.81;6009337;23;20019;-74
2022/11/30 04:11:14;;;;;;;13.75;10.63;;;;;;;6.37;100.00;101876.03;6016633;23;20037;-75
2022/11/30 04:13:41;;;;;;;8.45;7.72;;;;;;;6.40;100.00;101865.59;5997998;23;20025;-75
2022/11/30 04:16:08;;;;;;;16.70;7.93;;;;;;;5.99;100.00;101791.50;6035687;23;21522;-75
2022/11/30 04:18:36;;;;;;;8.52;7.68;;;;;;;6.21;100.00;101836.31;5998987;23;20541;-75
2022/11/30 04:21:04;;;;;;;18.60;6.88;;;;;;;6.41;100.00;101871.66;6015862;23;20082;-75
2022/11/30 04:23:34;;;;;;;12.05;7.97;;;;;;;5.96;100.00;101807.19;5992248;23;20365;-74
2022/11/30 04:26:05;;;;;;;12.13;7.20;;;;;;;5.85;100.00;101781.25;6012235;23;20158;-75
2022/11/30 04:28:33;;;;;;;9.77;8.25;;;;;;;5.99;100.00;101817.53;6007473;23;20027;-73
2022/11/30 04:30:59;;;;;;;18.55;8.73;;;;;;;6.11;100.00;101840.81;6013498;23;20023;-75
2022/11/30 04:33:29;;;;;;;8.48;7.70;;;;;;;6.28;100.00;101866.63;6008954;23;20021;-73
2022/11/30 04:35:58;;;;;;;8.60;7.65;;;;;;;6.15;100.00;101846.84;6017983;23;20039;-74
2022/11/30 04:38:25;;;;;;;23.15;6.78;;;;;;;6.26;100.00;101863.19;5993599;23;20042;-74
2022/11/30 04:40:52;;;;;;;9.25;8.32;;;;;;;5.73;100.00;101784.03;6020638;23;20045;-72
2022/11/30 04:43:19;;;;;;;12.77;8.70;;;;;;;6.10;100.00;101851.28;6014406;23;20015;-74
2022/11/30 04:45:46;;;;;;;10.23;8.93;;;;;;;6.19;100.00;101871.97;6032490;23;20532;-75
2022/11/30 04:48:14;;;;;;;9.10;8.30;;;;;;;6.16;100.00;101864.22;5962692;23;20091;-76
2022/11/30 04:50:41;;;;;;;7.50;6.72;;;;;;;6.15;100.00;101871.19;5993927;23;20030;-75
2022/11/30 04:53:07;;;;;;;18.73;9.88;;;;;;;6.11;100.00;101864.25;5995436;23;20090;-74
2022/11/30 04:55:36;;;;;;;12.15;7.88;;;;;;;6.12;100.00;101865.16;5990102;23;20011;-76
2022/11/30 04:58:04;;;;;;;11.00;6.35;;;;;;;6.11;100.00;101864.25;5982886;23;20012;-76
2022/11/30 05:00:31;;;;;;;9.50;8.60;;;;;;;6.05;100.00;101874.78;6011227;23;20023;-73
2022/11/30 05:02:57;;;;;;;8.85;8.02;;;;;;;6.07;100.00;101870.41;5979377;23;20030;-74
2022/11/30 05:05:23;;;;;;;12.77;7.35;;;;;;;6.08;100.00;101877.34;5980849;23;20019;-71
2022/11/30 05:07:54;;;;;;;8.60;7.75;;;;;;;5.98;100.00;101873.16;5982812;23;20008;-71
2022/11/30 05:10:21;;;;;;;8.32;7.65;;;;;;;5.98;100.00;101879.22;5983913;23;20448;-73
2022/11/30 05:12:49;;;;;;;16.95;11.25;;;;;;;5.95;100.00;101879.28;5975357;23;20331;-71
2022/11/30 05:15:15;;;;;;;10.13;9.13;;;;;;;5.73;100.00;101833.53;5980304;23;20400;-72
2022/11/30 05:17:42;;;;;;;8.57;7.50;;;;;;;6.00;100.00;101874.00;5984412;23;20055;-74
2022/11/30 05:20:09;;;;;;;18.52;10.10;;;;;;;5.98;100.00;101875.78;6001262;23;20030;-71
2022/11/30 05:22:35;;;;;;;10.05;8.13;;;;;;;5.95;100.00;101876.69;5950311;23;20091;-73
2022/11/30 05:25:02;;;;;;;14.38;9.40;;;;;;;5.99;100.00;101893.09;5980501;23;20042;-71
2022/11/30 05:27:29;;;;;;;7.55;7.05;;;;;;;5.92;100.00;101881.88;5980255;23;20023;-71
2022/11/30 05:29:55;;;;;;;6.95;6.53;;;;;;;5.86;100.00;101863.75;5981777;23;20022;-70
2022/11/30 05:32:22;;;;;;;8.50;7.80;;;;;;;5.91;100.00;101866.28;5975413;23;20023;-72
2022/11/30 05:34:48;;;;;;;9.45;8.52;;;;;;;5.84;100.00;101870.72;5987758;23;20000;-71
2022/11/30 05:37:18;;;;;;;9.20;7.45;;;;;;;5.82;100.00;101879.44;5978657;23;20066;-72
2022/11/30 05:39:44;;;;;;;8.57;7.72;;;;;;;5.73;100.00;101875.19;5984146;23;20021;-71
2022/11/30 05:42:10;;;;;;;19.80;8.63;;;;;;;5.76;100.00;101873.41;5977765;23;20023;-73
2022/11/30 05:44:37;;;;;;;9.02;6.97;;;;;;;5.69;100.00;101870.91;6011869;23;20015;-70
2022/11/30 05:47:03;;;;;;;11.88;8.18;;;;;;;5.67;100.00;101868.31;5977218;23;20270;-71
2022/11/30 05:49:30;;;;;;;8.45;7.63;;;;;;;5.65;100.00;101869.22;6003161;23;20018;-72
2022/11/30 05:51:56;;;;;;;8.57;7.75;;;;;;;5.77;100.00;101864.72;5998274;23;20008;-71
2022/11/30 05:54:23;;;;;;;8.98;8.18;;;;;;;5.74;100.00;101880.38;6012489;23;20043;-70
2022/11/30 05:56:49;;;;;;;6.47;5.90;;;;;;;5.74;100.00;101871.72;6018566;23;20662;-73
2022/11/30 05:59:21;;;;;;;9.48;7.28;;;;;;;4.57;100.00;101672.78;6011241;23;20027;-71
2022/11/30 06:01:47;;;;;;;9.95;8.23;;;;;;;5.48;100.00;101814.78;6002184;23;20434;-71
2022/11/30 06:04:14;;;;;;;6.80;6.22;;;;;;;5.62;100.00;101822.41;6003238;23;20167;-72
2022/11/30 06:06:40;;;;;;;12.38;8.90;;;;;;;5.69;100.00;101853.56;6000040;23;20023;-71
2022/11/30 06:09:07;;;;;;;13.23;9.05;;;;;;;5.72;100.00;101848.28;6013712;23;20766;-72
2022/11/30 06:11:33;;;;;;;9.30;7.68;;;;;;;5.62;100.00;101812.00;6011445;23;20031;-72
2022/11/30 06:13:59;;;;;;;13.75;9.75;;;;;;;5.82;100.00;101842.97;6002919;23;20031;-71
2022/11/30 06:16:26;;;;;;;9.50;8.48;;;;;;;5.40;100.00;101779.28;5993593;23;20171;-73
2022/11/30 06:18:52;;;;;;;8.43;7.60;;;;;;;5.71;100.00;101827.47;6019238;23;20032;-71
2022/11/30 06:21:19;;;;;;;13.57;9.32;;;;;;;5.70;100.00;101841.41;5990644;23;20026;-72
2022/11/30 06:23:50;;;;;;;8.52;6.97;;;;;;;5.21;100.00;101772.59;6012409;23;20030;-71
2022/11/30 06:26:16;;;;;;;8.52;7.30;;;;;;;5.54;100.00;101849.41;5997624;23;20102;-72
2022/11/30 06:28:42;;;;;;;13.40;8.43;;;;;;;4.86;100.00;101752.22;6014833;23;20023;-72
2022/11/30 06:31:14;;;;;;;9.15;7.50;;;;;;;5.40;100.00;101853.91;5996418;23;20027;-73
2022/11/30 06:33:41;;;;;;;10.50;8.27;;;;;;;5.18;100.00;101833.34;6002149;23;20179;-73
2022/11/30 06:36:08;;;;;;;6.50;6.00;;;;;;;4.90;100.00;101811.97;6001538;23;20533;-71
2022/11/30 06:38:34;;;;;;;8.23;7.43;;;;;;;5.09;100.00;101850.78;6001272;23;20119;-71
2022/11/30 06:41:05;;;;;;;8.43;6.40;;;;;;;5.06;100.00;101882.91;6006114;23;20097;-74
2022/11/30 06:43:36;;;;;;;8.60;7.22;;;;;;;4.99;100.00;101874.31;6001387;23;20019;-74
2022/11/30 06:46:03;;;;;;;9.75;6.22;;;;;;;4.96;100.00;101887.34;6006119;23;20085;-72
2022/11/30 06:48:30;;;;;;;7.50;6.80;;;;;;;4.95;100.00;101888.25;6007857;23;20099;-75
2022/11/30 06:50:57;;;;;;;17.88;7.38;;;;;;;4.93;100.00;101896.91;6017891;23;20031;-74
2022/11/30 06:53:24;;;;;;;8.88;7.60;;;;;;;4.86;100.00;101906.53;6038038;23;20069;-73
2022/11/30 06:55:50;;;;;;;9.48;7.53;;;;;;;4.43;100.00;101841.91;6004698;23;20020;-74
2022/11/30 06:58:17;;;;;;;7.55;5.82;;;;;;;4.87;100.00;101915.19;6017120;23;20022;-72
2022/11/30 07:00:44;;;;;;;6.63;5.57;;;;;;;4.86;100.00;101918.66;6000793;23;20034;-71
2022/11/30 07:03:10;;;;;;;8.80;6.55;;;;;;;4.57;100.00;101876.44;6032951;23;20022;-72
2022/11/30 07:05:42;;;;;;;14.27;7.65;;;;;;;4.85;100.00;101937.75;6008882;23;20152;-72
2022/11/30 07:08:10;;;;;;;9.18;6.43;;;;;;;4.83;100.00;101932.56;6047137;23;20035;-70
2022/11/30 07:10:44;;;;;;;9.10;8.02;;;;;;;4.83;100.00;101939.50;6012690;23;20031;-73
2022/11/30 07:13:12;;;;;;;11.45;8.38;;;;;;;4.81;100.00;101947.28;6021206;23;20002;-73
2022/11/30 07:15:39;;;;;;;8.88;7.88;;;;;;;4.54;100.00;101904.19;6007410;23;20370;-71
2022/11/30 07:18:06;;;;;;;10.10;8.13;;;;;;;4.69;100.00;101927.47;6029896;23;20499;-72
2022/11/30 07:20:33;;;;;;;8.93;7.95;;;;;;;4.83;100.00;101958.59;5983233;23;20432;-72
2022/11/30 07:26:05;;;;;;;11.13;7.25;;;;;;;4.68;100.00;101941.34;6034606;23;20088;-73
2022/11/30 07:26:06;;;;;;;11.18;7.75;;;;;;;4.55;100.00;101937.97;6009203;23;20471;-75
2022/11/30 07:28:38;;;;;;;10.90;7.30;;;;;;;4.82;100.00;101967.25;6034051;23;20443;-77
2022/11/30 07:31:21;;;;;;;7.45;6.60;;;;;;;4.84;100.00;101975.91;6007193;23;20027;-75
2022/11/30 07:33:49;;;;;;;8.07;7.32;;;;;;;4.76;100.00;101973.34;6005145;23;20018;-75
2022/11/30 07:36:18;;;;;;;7.32;6.70;;;;;;;3.90;100.00;101820.63;6002640;23;20021;-76
2022/11/30 07:38:45;;;;;;;10.65;7.28;;;;;;;4.64;100.00;101955.25;6006957;23;20237;-74
2022/11/30 07:41:12;;;;;;;16.05;6.78;;;;;;;4.52;100.00;101944.94;6004726;23;20460;-75
2022/11/30 07:43:39;;;;;;;7.15;6.03;;;;;;;4.68;100.00;101958.69;6026686;23;20078;-75
2022/11/30 07:46:06;;;;;;;7.28;5.68;;;;;;;4.93;100.00;102001.84;5998097;23;20027;-73
2022/11/30 07:48:34;;;;;;;7.35;6.85;;;;;;;4.98;100.00;102007.00;5995996;23;20257;-74
2022/11/30 07:51:05;;;;;;;10.85;8.40;;;;;;;4.38;100.00;101904.28;5938956;23;20364;-75
2022/11/30 07:53:32;;;;;;;8.55;6.40;;;;;;;5.06;100.00;102010.41;6012700;23;20019;-75
2022/11/30 07:56:06;;;;;;;7.70;7.07;;;;;;;3.73;100.00;101792.19;5951621;23;20020;-74
2022/11/30 07:58:33;;;;;;;7.40;6.72;;;;;;;4.96;100.00;101999.22;6007178;23;20085;-73
2022/11/30 08:01:10;;;;;;;8.63;7.85;;;;;;;5.11;100.00;102011.25;5974819;23;20023;-73
2022/11/30 08:03:37;;;;;;;8.70;7.47;;;;;;;4.90;100.00;101981.06;5964778;23;20031;-75
2022/11/30 08:06:10;;;;;;;7.03;6.53;;;;;;;4.91;100.00;101971.50;6003882;23;20033;-74
2022/11/30 08:08:43;;;;;;;11.63;8.23;;;;;;;4.68;100.00;101951.75;5976404;23;20465;-76
2022/11/30 08:11:10;;;;;;;;;;;;;;;5.15;100.00;102010.34;6003705;23;20042;-74
2022/11/30 08:13:37;;;;;;;12.00;6.00;;;;;;;3.84;100.00;101797.28;5977590;23;19914;-75
2022/11/30 08:16:11;;;;;;;6.40;5.95;;;;;;;5.01;100.00;102004.38;6004182;23;20341;-74
2022/11/30 08:18:39;;;;;;;10.30;6.70;;;;;;;5.19;100.00;102021.56;5975937;23;20031;-75
2022/11/30 08:21:07;;;;;;;8.95;8.15;;;;;;;5.19;100.00;102025.06;5980396;23;20038;-75
2022/11/30 08:23:37;;;;;;;9.73;6.47;;;;;;;5.20;100.00;102025.91;5976785;23;20038;-76
2022/11/30 08:26:13;;;;;;;9.77;7.10;;;;;;;5.21;100.00;102019.81;5999897;23;20170;-74
2022/11/30 08:28:41;;;;;;;9.20;7.68;;;;;;;5.12;100.00;102009.50;5978907;23;20035;-75
2022/11/30 08:31:10;;;;;;;9.93;8.10;;;;;;;5.25;100.00;102029.34;6007785;23;20390;-77
2022/11/30 08:33:37;;;;;;;7.05;6.40;;;;;;;5.30;100.00;102027.56;5986777;23;20485;-75
2022/11/30 08:36:23;;;;;;;15.48;8.80;;;;;;;5.28;100.00;102028.44;6010318;23;20029;-73
2022/11/30 08:38:50;;;;;;;7.50;6.93;;;;;;;5.33;100.00;102027.53;5975062;23;20031;-72
2022/11/30 08:41:20;;;;;;;10.90;7.05;;;;;;;5.35;100.00;102033.59;6004139;23;20053;-74
2022/11/30 08:43:47;;;;;;;8.05;5.57;;;;;;;4.19;100.00;101855.94;5981765;23;20008;-75
2022/11/30 08:46:16;;;;;;;8.73;7.38;;;;;;;4.44;100.00;101908.59;6022370;23;20384;-74
2022/11/30 08:49:03;;;;;;;9.50;7.53;;;;;;;5.02;100.00;102010.47;6003078;23;20019;-76
2022/11/30 08:51:51;;;;;;;11.38;9.00;;;;;;;4.40;100.00;101938.94;6045181;23;20014;-74
2022/11/30 08:54:41;;;;;;;7.57;6.97;;;;;;;4.75;100.00;101963.84;6006197;23;20262;-76
2022/11/30 08:57:07;;;;;;;11.10;7.22;;;;;;;4.20;100.00;101873.25;6029012;23;20026;-74
2022/11/30 08:59:33;;;;;;;13.90;8.13;;;;;;;5.15;100.00;102031.16;6001356;23;20019;-74
2022/11/30 09:02:00;;;;;;;7.38;6.75;;;;;;;5.27;100.00;102042.31;6029805;23;20026;-73
2022/11/30 09:04:26;;;;;;;8.52;7.68;;;;;;;5.03;100.00;102005.22;6003923;23;20249;-75
2022/11/30 09:06:57;;;;;;;7.25;6.40;;;;;;;5.00;100.00;102011.31;6032320;23;20015;-73
2022/11/30 09:09:24;;;;;;;9.55;7.07;;;;;;;4.68;100.00;101946.53;6003450;23;20539;-73
2022/11/30 09:11:50;;;;;;;9.98;7.80;;;;;;;5.34;100.00;102046.63;6009373;23;20093;-72
2022/11/30 09:14:17;;;;;;;12.63;7.85;;;;;;;4.89;100.00;101975.84;6001733;23;20111;-76
2022/11/30 09:16:43;;;;;;;10.18;8.32;;;;;;;5.29;100.00;102040.56;6034035;23;20404;-72
2022/11/30 09:19:10;;;;;;;8.15;7.55;;;;;;;5.24;100.00;102026.75;6005974;23;20034;-73
2022/11/30 09:21:36;;;;;;;8.38;6.75;;;;;;;5.01;100.00;101980.94;6041979;23;20357;-76
2022/11/30 09:24:03;;;;;;;8.63;7.03;;;;;;;5.13;100.00;102008.59;6008455;23;20258;-75
2022/11/30 09:26:29;;;;;;;8.70;7.90;;;;;;;4.99;100.00;101987.91;6030706;23;20039;-74
2022/11/30 09:28:58;;;;;;;15.65;7.60;;;;;;;5.30;100.00;102047.53;6010947;23;20027;-75
2022/11/30 09:31:26;;;;;;;16.88;6.30;;;;;;;5.02;100.00;101982.69;6033048;23;20014;-73
2022/11/30 09:33:55;;;;;;;10.23;7.53;;;;;;;5.53;100.00;102044.69;6010856;23;20019;-76
2022/11/30 09:36:22;;;;;;;9.32;8.50;;;;;;;5.35;100.00;102035.31;6042092;23;20436;-76
2022/11/30 09:38:49;;;;;;;10.00;7.60;;;;;;;5.49;100.00;102053.41;6004472;23;20070;-76
2022/11/30 09:41:27;;;;;;;9.43;7.15;;;;;;;5.51;100.00;102052.53;6001352;23;20084;-76
2022/11/30 09:44:13;;;;;;;15.07;6.80;;;;;;;5.50;100.00;102065.56;6011906;23;20015;-74
2022/11/30 09:47:23;;;;;;;10.55;7.78;;;;;;;5.49;100.00;102051.69;6010326;23;20023;-74
2022/11/30 09:49:56;;;;;;;7.18;6.50;;;;;;;5.18;100.00;101999.88;5942465;23;20039;-73
2022/11/30 09:52:32;;;;;;;8.55;7.32;;;;;;;5.63;100.00;102051.53;6032708;23;20038;-76
2022/11/30 09:55:05;;;;;;;9.45;8.23;;;;;;;5.47;100.00;102029.13;6001094;23;20242;-75
2022/11/30 09:57:45;;;;;;;16.88;8.13;;;;;;;5.65;100.00;102051.53;6030367;23;20083;-74
2022/11/30 10:00:17;;;;;;;9.63;8.68;;;;;;;5.60;100.00;102049.84;5985921;23;20052;-73
2022/11/30 10:02:44;;;;;;;9.38;7.53;;;;;;;5.62;100.00;102052.44;6033168;23;20460;-75
2022/11/30 10:05:14;;;;;;;9.18;8.45;;;;;;;5.62;100.00;102029.00;6000256;23;20569;-78
2022/11/30 10:08:03;;;;;;;9.13;7.90;;;;;;;5.76;100.00;102047.09;6038009;23;20100;-75
2022/11/30 10:10:43;;;;;;;15.38;8.70;;;;;;;5.38;100.00;101976.28;6013280;23;20025;-75
2022/11/30 10:13:39;;;;;;;10.40;8.52;;;;;;;5.28;100.00;101976.41;6035206;23;20805;-76
2022/11/30 10:16:26;;;;;;;10.60;8.60;;;;;;;5.46;100.00;101998.78;6001347;23;20027;-76
2022/11/30 10:19:30;;;;;;;10.40;8.85;;;;;;;5.78;100.00;102046.19;6001897;23;20048;-75
2022/11/30 10:22:11;;;;;;;19.05;9.52;;;;;;;5.82;100.00;102038.34;6001933;23;20033;-75
2022/11/30 10:25:02;;;;;;;13.82;9.88;;;;;;;5.27;100.00;101946.91;6005582;23;20305;-75
2022/11/30 10:27:52;;;;;;;8.05;7.35;;;;;;;5.80;100.00;102038.34;6007963;23;20479;-76
2022/11/30 10:30:24;;;;;;;18.45;11.70;;;;;;;5.83;100.00;102040.06;6019971;23;20011;-73
2022/11/30 10:32:53;;;;;;;19.98;11.13;;;;;;;5.77;100.00;102035.78;6004950;23;20026;-75
2022/11/30 10:35:47;;;;;;;13.30;10.70;;;;;;;5.83;100.00;102038.31;6009812;23;20484;-74
2022/11/30 10:38:34;;;;;;;12.98;10.10;;;;;;;5.83;100.00;102035.69;6034413;23;20054;-76
2022/11/30 10:41:10;;;;;;;16.85;10.52;;;;;;;5.66;100.00;101998.56;6005885;23;20094;-76
2022/11/30 10:44:03;;;;;;;11.05;9.57;;;;;;;5.65;100.00;101979.47;6028221;23;20023;-76
2022/11/30 10:46:32;;;;;;;15.95;10.10;;;;;;;5.85;100.00;102020.91;5997154;23;20077;-74
2022/11/30 10:49:05;;;;;;;17.80;12.45;;;;;;;5.51;100.00;101968.34;6037733;23;20218;-76
2022/11/30 10:51:36;;;;;;;9.80;8.95;;;;;;;5.62;100.00;101979.50;6000130;23;20011;-76
2022/11/30 10:54:12;;;;;;;11.70;10.57;;;;;;;5.23;100.00;101907.91;6036174;23;20416;-75
2022/11/30 10:56:39;;;;;;;10.73;8.52;;;;;;;5.68;100.00;101987.25;6003371;23;20314;-75
2022/11/30 10:59:52;;;;;;;12.75;9.30;;;;;;;4.98;100.00;101883.00;6030599;23;20107;-74
2022/11/30 11:02:46;;;;;;;15.73;10.80;;;;;;;5.88;100.00;102036.53;5989214;23;20049;-76
2022/11/30 11:05:24;;;;;;;10.77;7.95;;;;;;;5.91;100.00;102030.41;6037722;23;20435;-75
2022/11/30 11:08:15;;;;;;;15.00;11.32;;;;;;;5.48;100.00;101964.03;6001970;23;20035;-74
2022/11/30 11:10:50;;;;;;;14.45;10.07;;;;;;;5.93;100.00;102028.66;6007833;23;20031;-76
2022/11/30 11:13:33;;;;;;;12.48;8.73;;;;;;;5.39;100.00;101943.28;5998994;23;20084;-76
2022/11/30 11:16:01;;;;;;;31.48;14.05;;;;;;;5.94;100.00;102033.84;6029489;23;20088;-75
2022/11/30 11:18:31;;;;;;;16.50;11.30;;;;;;;5.44;100.00;101945.88;6005698;23;20043;-77
2022/11/30 11:21:10;;;;;;;19.65;12.50;;;;;;;5.99;100.00;102032.09;6032449;23;20026;-76
2022/11/30 11:23:39;;;;;;;17.42;11.23;;;;;;;6.03;100.00;102029.44;5999076;23;20092;-77
2022/11/30 11:26:14;;;;;;;19.90;11.68;;;;;;;5.65;100.00;101963.84;6028125;23;20031;-76
2022/11/30 11:28:45;;;;;;;18.58;12.13;;;;;;;6.09;100.00;102038.03;5990586;23;20022;-76
2022/11/30 11:31:36;;;;;;;18.17;11.63;;;;;;;6.13;100.00;102036.28;6033703;23;20049;-76
2022/11/30 11:34:21;;;;;;;24.52;13.93;;;;;;;5.35;100.00;101897.34;5990370;23;20102;-76
2022/11/30 11:37:03;;;;;;;21.33;12.32;;;;;;;6.08;100.00;102030.25;6034374;23;20042;-76
2022/11/30 11:39:30;;;;;;;14.25;10.93;;;;;;;5.75;100.00;101980.22;5999345;23;20409;-77